createdAt,value
2023-03-16T00:01:16.578Z,1.83
2023-03-16T00:03:45.854Z,1.93
2023-03-16T00:06:13.726Z,1.77
2023-03-16T00:08:43.181Z,1.50
2023-03-16T00:11:13.174Z,1.63
2023-03-16T00:13:42.855Z,1.80
2023-03-16T00:16:16.833Z,1.43
2023-03-16T00:18:46.106Z,1.70
2023-03-16T00:21:15.839Z,1.90
2023-03-16T00:23:43.809Z,1.53
2023-03-16T00:26:13.030Z,1.40
2023-03-16T00:28:42.652Z,2.53
2023-03-16T00:31:12.703Z,2.00
2023-03-16T00:33:42.719Z,1.50
2023-03-16T00:36:12.801Z,1.50
2023-03-16T00:38:45.079Z,1.63
2023-03-16T00:41:15.296Z,1.87
2023-03-16T00:43:45.351Z,1.60
2023-03-16T00:46:16.007Z,2.00
2023-03-16T00:48:45.679Z,1.83
2023-03-16T00:51:16.973Z,1.67
2023-03-16T00:53:46.918Z,2.10
2023-03-16T00:56:15.048Z,1.60
2023-03-16T00:58:43.999Z,1.33
2023-03-16T01:01:14.273Z,1.80
2023-03-16T01:03:42.443Z,2.07
2023-03-16T01:06:12.597Z,1.50
2023-03-16T01:08:42.580Z,1.97
2023-03-16T01:11:13.129Z,1.30
2023-03-16T01:13:41.535Z,1.50
2023-03-16T01:16:10.666Z,1.83
2023-03-16T01:18:38.585Z,1.67
2023-03-16T01:21:08.953Z,1.30
2023-03-16T01:23:37.473Z,1.63
2023-03-16T01:26:08.324Z,3.00
2023-03-16T01:28:36.425Z,1.53
2023-03-16T01:31:06.914Z,1.50
2023-03-16T01:33:35.175Z,1.83
2023-03-16T01:36:05.278Z,1.93
2023-03-16T01:38:33.566Z,1.80
2023-03-16T01:41:01.865Z,2.20
2023-03-16T01:43:33.185Z,1.37
2023-03-16T01:46:24.050Z,1.73
2023-03-16T01:49:01.491Z,1.70
2023-03-16T01:51:34.073Z,1.50
2023-03-16T01:54:05.822Z,1.70
2023-03-16T01:56:38.816Z,1.33
2023-03-16T01:59:12.385Z,2.07
2023-03-16T02:01:40.637Z,2.07
2023-03-16T02:04:23.066Z,1.90
2023-03-16T02:06:51.271Z,1.90
2023-03-16T02:09:20.289Z,1.93
2023-03-16T02:11:49.083Z,1.93
2023-03-16T02:14:18.269Z,1.50
2023-03-16T02:16:47.488Z,1.90
2023-03-16T02:19:21.091Z,1.50
2023-03-16T02:21:54.802Z,1.60
2023-03-16T02:24:22.831Z,1.50
2023-03-16T02:26:55.988Z,1.83
2023-03-16T02:29:47.864Z,1.70
2023-03-16T02:32:17.366Z,2.20
2023-03-16T02:34:45.400Z,2.00
2023-03-16T02:37:13.368Z,2.00
2023-03-16T02:39:44.026Z,2.20
2023-03-16T02:42:15.396Z,2.07
2023-03-16T02:44:48.067Z,2.00
2023-03-16T02:47:25.358Z,2.10
2023-03-16T02:49:53.204Z,1.93
2023-03-16T02:52:21.084Z,1.87
2023-03-16T02:54:48.895Z,2.10
2023-03-16T02:57:16.798Z,2.00
2023-03-16T02:59:45.931Z,2.23
2023-03-16T03:02:14.117Z,2.10
2023-03-16T03:04:46.274Z,1.70
2023-03-16T03:07:14.374Z,1.87
2023-03-16T03:09:43.181Z,1.60
2023-03-16T03:12:11.783Z,1.50
2023-03-16T03:14:40.858Z,1.60
2023-03-16T03:17:13.837Z,1.70
2023-03-16T03:19:42.428Z,1.57
2023-03-16T03:22:10.301Z,2.40
2023-03-16T03:24:39.126Z,2.77
2023-03-16T03:27:07.093Z,1.87
2023-03-16T03:29:35.374Z,2.10
2023-03-16T03:32:03.329Z,1.90
2023-03-16T03:34:32.951Z,1.83
2023-03-16T03:37:01.243Z,1.77
2023-03-16T03:39:29.125Z,1.80
2023-03-16T03:41:56.990Z,2.33
2023-03-16T03:44:26.930Z,1.90
2023-03-16T03:46:54.853Z,2.10
2023-03-16T03:49:22.732Z,1.97
2023-03-16T03:51:52.063Z,2.00
2023-03-16T03:54:19.924Z,1.70
2023-03-16T03:56:47.852Z,1.50
2023-03-16T03:59:15.712Z,2.17
2023-03-16T04:01:43.522Z,2.00
2023-03-16T04:04:11.370Z,2.17
2023-03-16T04:06:39.234Z,1.93
2023-03-16T04:09:08.762Z,1.93
2023-03-16T04:11:36.610Z,1.80
2023-03-16T04:14:04.830Z,2.43
2023-03-16T04:16:34.032Z,2.13
2023-03-16T04:19:01.887Z,1.80
2023-03-16T04:21:29.691Z,1.80
2023-03-16T04:23:57.524Z,2.03
2023-03-16T04:26:26.784Z,3.60
2023-03-16T04:28:54.654Z,1.60
2023-03-16T04:31:22.574Z,1.80
2023-03-16T04:33:50.730Z,2.30
2023-03-16T04:36:18.577Z,2.17
2023-03-16T04:38:46.423Z,2.00
2023-03-16T04:41:14.319Z,2.17
2023-03-16T04:43:43.497Z,1.80
2023-03-16T04:46:12.035Z,2.30
2023-03-16T04:48:39.938Z,2.67
2023-03-16T04:51:07.843Z,2.17
2023-03-16T04:53:36.123Z,2.17
2023-03-16T04:56:04.120Z,2.20
2023-03-16T04:58:32.005Z,1.93
2023-03-16T05:01:01.197Z,3.20
2023-03-16T05:03:29.042Z,4.73
2023-03-16T05:05:56.947Z,6.23
2023-03-16T05:08:24.838Z,8.20
2023-03-16T05:10:52.665Z,7.43
2023-03-16T05:13:20.889Z,8.00
2023-03-16T05:15:49.192Z,8.70
2023-03-16T05:18:18.443Z,8.73
2023-03-16T05:20:46.316Z,8.70
2023-03-16T05:23:14.149Z,8.67
2023-03-16T05:25:41.992Z,8.83
2023-03-16T05:28:09.872Z,9.13
2023-03-16T05:30:38.023Z,9.47
2023-03-16T05:33:06.110Z,7.70
2023-03-16T05:35:35.711Z,8.53
2023-03-16T05:38:03.665Z,10.00
2023-03-16T05:40:33.059Z,9.40
2023-03-16T05:43:01.232Z,9.30
2023-03-16T05:45:29.740Z,9.60
2023-03-16T05:47:57.690Z,9.07
2023-03-16T05:50:26.648Z,8.83
2023-03-16T05:52:56.045Z,9.07
2023-03-16T05:55:24.444Z,8.70
2023-03-16T05:57:52.268Z,9.20
2023-03-16T06:00:21.431Z,8.90
2023-03-16T06:02:52.243Z,8.70
2023-03-16T06:05:24.366Z,7.30
2023-03-16T06:07:52.707Z,9.30
2023-03-16T06:10:22.292Z,7.73
2023-03-16T06:12:50.266Z,8.67
2023-03-16T06:15:18.141Z,9.07
2023-03-16T06:17:46.068Z,8.20
2023-03-16T06:20:14.883Z,7.87
2023-03-16T06:22:43.995Z,8.27
2023-03-16T06:25:14.177Z,6.87
2023-03-16T06:27:43.555Z,7.73
2023-03-16T06:30:13.737Z,8.83
2023-03-16T06:32:43.183Z,8.00
2023-03-16T06:35:12.232Z,8.07
2023-03-16T06:37:40.082Z,9.00
2023-03-16T06:40:09.708Z,6.40
2023-03-16T06:42:37.541Z,7.97
2023-03-16T06:45:07.934Z,7.57
2023-03-16T06:47:35.821Z,7.67
2023-03-16T06:50:04.468Z,8.47
2023-03-16T06:52:32.647Z,6.90
2023-03-16T06:55:00.472Z,8.97
2023-03-16T06:57:28.567Z,8.17
2023-03-16T06:59:56.381Z,7.17
2023-03-16T07:02:25.652Z,7.47
2023-03-16T07:04:54.001Z,8.17
2023-03-16T07:07:21.935Z,8.00
2023-03-16T07:09:49.814Z,8.13
2023-03-16T07:12:17.726Z,7.50
2023-03-16T07:14:47.304Z,8.17
2023-03-16T07:17:16.690Z,8.90
2023-03-16T07:19:45.872Z,8.40
2023-03-16T07:22:13.869Z,8.70
2023-03-16T07:24:41.708Z,8.43
2023-03-16T07:27:12.063Z,7.97
2023-03-16T07:29:40.247Z,8.03
2023-03-16T07:32:08.530Z,8.43
2023-03-16T07:34:36.469Z,8.10
2023-03-16T07:37:06.503Z,9.37
2023-03-16T07:39:34.425Z,8.83
2023-03-16T07:42:02.494Z,7.43
2023-03-16T07:44:31.243Z,8.00
2023-03-16T07:46:59.114Z,9.20
2023-03-16T07:49:27.697Z,8.03
2023-03-16T07:51:55.558Z,8.73
2023-03-16T07:54:25.295Z,6.97
2023-03-16T07:56:53.120Z,6.30
2023-03-16T07:59:21.451Z,7.13
2023-03-16T08:01:49.375Z,7.23
2023-03-16T08:04:17.233Z,7.70
2023-03-16T08:06:45.424Z,6.57
2023-03-16T08:09:13.406Z,5.57
2023-03-16T08:11:42.770Z,4.70
2023-03-16T08:14:10.844Z,5.20
2023-03-16T08:16:38.700Z,6.80
2023-03-16T08:19:07.208Z,6.07
2023-03-16T08:21:48.715Z,5.07
2023-03-16T08:24:24.079Z,4.93
2023-03-16T08:26:53.265Z,5.37
2023-03-16T08:29:21.162Z,4.80
2023-03-16T08:31:49.671Z,4.80
2023-03-16T08:34:18.018Z,5.13
2023-03-16T08:36:46.058Z,5.30
2023-03-16T08:39:13.904Z,5.70
2023-03-16T08:41:42.912Z,5.17
2023-03-16T08:44:12.948Z,6.50
2023-03-16T08:46:42.296Z,6.83
2023-03-16T08:49:10.916Z,6.37
2023-03-16T08:51:39.228Z,6.00
2023-03-16T08:54:07.449Z,5.93
2023-03-16T08:56:35.382Z,5.80
2023-03-16T08:59:03.689Z,5.20
2023-03-16T09:01:34.010Z,6.07
2023-03-16T09:04:03.309Z,5.37
2023-03-16T09:06:31.658Z,6.70
2023-03-16T09:09:00.003Z,5.80
2023-03-16T09:11:30.608Z,5.67
2023-03-16T09:13:58.618Z,5.50
2023-03-16T09:16:26.706Z,6.00
2023-03-16T09:18:55.936Z,6.53
2023-03-16T09:21:23.920Z,5.10
2023-03-16T09:23:51.878Z,5.47
2023-03-16T09:26:20.750Z,6.50
2023-03-16T09:28:49.300Z,6.90
2023-03-16T09:31:18.992Z,6.17
2023-03-16T09:33:47.993Z,5.73
2023-03-16T09:36:17.585Z,6.77
2023-03-16T09:38:45.562Z,6.57
2023-03-16T09:41:25.667Z,8.03
2023-03-16T09:44:04.743Z,7.27
2023-03-16T09:46:36.698Z,6.20
2023-03-16T09:49:04.987Z,7.53
2023-03-16T09:51:45.265Z,5.90
2023-03-16T09:54:22.754Z,6.67
2023-03-16T09:56:52.205Z,6.63
2023-03-16T09:59:22.483Z,6.83
2023-03-16T10:02:11.883Z,6.93
2023-03-16T10:04:46.251Z,6.73
2023-03-16T10:07:26.514Z,7.00
2023-03-16T10:09:58.583Z,5.80
2023-03-16T10:12:33.010Z,7.03
2023-03-16T10:15:07.034Z,5.63
2023-03-16T10:17:40.135Z,6.43
2023-03-16T10:20:13.029Z,7.50
2023-03-16T10:22:44.927Z,6.90
2023-03-16T10:25:20.594Z,6.60
2023-03-16T10:27:49.129Z,6.60
2023-03-16T10:30:25.741Z,6.13
2023-03-16T10:32:53.811Z,7.03
2023-03-16T10:35:31.246Z,5.80
2023-03-16T10:38:00.806Z,6.37
2023-03-16T10:40:32.664Z,6.33
2023-03-16T10:43:06.962Z,5.50
2023-03-16T10:45:37.384Z,5.73
2023-03-16T10:48:10.096Z,6.40
2023-03-16T10:50:38.111Z,5.80
2023-03-16T10:53:17.825Z,6.17
2023-03-16T10:55:45.822Z,7.00
2023-03-16T10:58:25.182Z,6.10
2023-03-16T11:00:53.584Z,6.00
2023-03-16T11:03:25.481Z,6.50
2023-03-16T11:06:02.293Z,5.60
2023-03-16T11:08:34.882Z,5.53
2023-03-16T11:11:11.849Z,5.80
2023-03-16T11:13:44.970Z,5.90
2023-03-16T11:16:23.020Z,4.97
2023-03-16T11:18:55.373Z,3.93
2023-03-16T11:21:32.054Z,5.23
2023-03-16T11:24:04.513Z,4.73
2023-03-16T11:26:35.741Z,4.60
2023-03-16T11:29:11.134Z,4.27
2023-03-16T11:31:46.232Z,3.57
2023-03-16T11:34:17.816Z,5.00
2023-03-16T11:36:51.177Z,4.97
2023-03-16T11:39:32.854Z,4.20
2023-03-16T11:42:15.700Z,4.27
2023-03-16T11:44:50.605Z,4.47
2023-03-16T11:47:43.765Z,3.73
2023-03-16T11:50:17.868Z,4.13
2023-03-16T11:52:55.592Z,3.20
2023-03-16T11:55:33.506Z,4.50
2023-03-16T11:58:18.047Z,3.40
2023-03-16T12:00:55.559Z,4.10
2023-03-16T12:03:53.926Z,3.60
2023-03-16T12:06:31.430Z,3.57
2023-03-16T12:09:27.173Z,3.50
2023-03-16T12:12:01.792Z,3.60
2023-03-16T12:14:33.831Z,3.50
2023-03-16T12:17:05.574Z,3.53
2023-03-16T12:19:43.542Z,4.20
2023-03-16T12:22:19.084Z,3.47
2023-03-16T12:24:48.107Z,3.47
2023-03-16T12:27:22.546Z,3.67
2023-03-16T12:30:01.881Z,3.47
2023-03-16T12:32:40.432Z,3.17
2023-03-16T12:35:23.045Z,3.07
2023-03-16T12:38:00.918Z,2.47
2023-03-16T12:40:36.034Z,3.17
2023-03-16T12:43:17.126Z,3.00
2023-03-16T12:45:58.188Z,2.20
2023-03-16T12:48:29.902Z,2.07
2023-03-16T12:51:00.817Z,2.70
2023-03-16T12:53:42.172Z,2.80
2023-03-16T12:56:12.180Z,3.10
2023-03-16T12:58:48.474Z,3.37
2023-03-16T13:01:19.918Z,2.70
2023-03-16T13:03:51.696Z,2.70
2023-03-16T13:06:22.654Z,3.27
2023-03-16T13:08:56.679Z,2.70
2023-03-16T13:11:25.331Z,2.90
2023-03-16T13:14:10.894Z,2.77
2023-03-16T13:16:40.059Z,2.50
2023-03-16T13:19:24.687Z,3.10
2023-03-16T13:22:04.391Z,3.03
2023-03-16T13:24:40.935Z,3.43
2023-03-16T13:27:23.201Z,3.10
2023-03-16T13:29:57.410Z,3.20
2023-03-16T13:32:28.680Z,3.17
2023-03-16T13:34:59.786Z,2.83
2023-03-16T13:37:30.641Z,3.13
2023-03-16T13:39:59.873Z,2.63
2023-03-16T13:42:31.436Z,3.87
2023-03-16T13:45:12.114Z,3.60
2023-03-16T13:47:43.635Z,3.43
2023-03-16T13:50:14.021Z,2.50
2023-03-16T13:52:44.593Z,2.93
2023-03-16T13:55:17.405Z,2.73
2023-03-16T13:57:46.863Z,2.60
2023-03-16T14:00:20.220Z,2.50
2023-03-16T14:02:52.093Z,3.03
2023-03-16T14:05:22.578Z,3.10
2023-03-16T14:07:52.129Z,2.87
2023-03-16T14:10:20.914Z,3.30
2023-03-16T14:12:53.125Z,2.87
2023-03-16T14:15:23.874Z,3.30
2023-03-16T14:17:51.909Z,3.17
2023-03-16T14:20:23.215Z,3.53
2023-03-16T14:22:54.519Z,2.90
2023-03-16T14:25:25.454Z,2.03
2023-03-16T14:28:00.894Z,2.80
2023-03-16T14:30:31.568Z,2.73
2023-03-16T14:33:01.251Z,2.13
2023-03-16T14:35:31.747Z,3.03
2023-03-16T14:38:20.126Z,2.97
2023-03-16T14:40:54.112Z,2.47
2023-03-16T14:43:26.225Z,2.10
2023-03-16T14:45:56.059Z,2.43
2023-03-16T14:48:24.705Z,2.90
2023-03-16T14:50:55.518Z,1.87
2023-03-16T14:53:24.509Z,3.10
2023-03-16T14:55:52.322Z,2.23
2023-03-16T14:58:20.101Z,2.90
2023-03-16T15:00:53.090Z,2.80
2023-03-16T15:03:28.259Z,2.50
2023-03-16T15:05:56.115Z,1.87
2023-03-16T15:08:27.215Z,2.30
2023-03-16T15:10:56.209Z,2.10
2023-03-16T15:13:52.520Z,2.40
2023-03-16T15:16:21.843Z,2.40
2023-03-16T15:18:51.857Z,2.00
2023-03-16T15:21:23.325Z,2.10
2023-03-16T15:23:51.355Z,1.83
2023-03-16T15:26:25.246Z,2.40
2023-03-16T15:28:53.123Z,2.37
2023-03-16T15:31:21.221Z,2.57
2023-03-16T15:33:49.180Z,2.33
2023-03-16T15:36:20.533Z,2.40
2023-03-16T15:38:51.379Z,2.37
2023-03-16T15:41:19.609Z,10.33
2023-03-16T15:43:47.440Z,3.57
2023-03-16T15:46:16.563Z,9.90
2023-03-16T15:48:44.591Z,3.00
2023-03-16T15:51:22.421Z,2.40
2023-03-16T15:53:52.551Z,2.00
2023-03-16T15:56:26.530Z,1.90
2023-03-16T15:58:54.370Z,1.23
2023-03-16T16:01:24.344Z,1.50
2023-03-16T16:03:56.024Z,1.40
2023-03-16T16:06:26.581Z,1.50
2023-03-16T16:08:54.387Z,1.57
2023-03-16T16:11:26.453Z,2.20
2023-03-16T16:13:55.740Z,1.37
2023-03-16T16:16:24.020Z,1.70
2023-03-16T16:18:51.940Z,1.80
2023-03-16T16:21:23.382Z,1.10
2023-03-16T16:23:53.700Z,1.40
2023-03-16T16:26:34.395Z,1.50
2023-03-16T16:29:14.869Z,1.00
2023-03-16T16:31:43.159Z,1.70
2023-03-16T16:34:14.272Z,1.30
2023-03-16T16:36:42.221Z,1.53
2023-03-16T16:39:12.591Z,1.30
2023-03-16T16:41:41.825Z,1.00
2023-03-16T16:44:17.704Z,1.43
2023-03-16T16:46:45.987Z,1.50
2023-03-16T16:49:16.906Z,1.60
2023-03-16T16:51:44.745Z,1.13
2023-03-16T16:54:17.615Z,1.03
2023-03-16T16:56:46.482Z,1.43
2023-03-16T16:59:18.556Z,1.50
2023-03-16T17:01:47.599Z,1.40
2023-03-16T17:04:17.635Z,1.10
2023-03-16T17:06:46.736Z,1.37
2023-03-16T17:09:16.205Z,1.57
2023-03-16T17:11:46.054Z,1.50
2023-03-16T17:14:18.397Z,1.50
2023-03-16T17:16:48.454Z,1.30
2023-03-16T17:19:21.636Z,1.00
2023-03-16T17:21:49.939Z,0.83
2023-03-16T17:24:19.177Z,1.07
2023-03-16T17:26:48.934Z,0.60
2023-03-16T17:29:21.046Z,0.90
2023-03-16T17:31:49.983Z,0.90
2023-03-16T17:34:20.851Z,0.97
2023-03-16T17:36:49.539Z,0.67
2023-03-16T17:39:21.674Z,0.70
2023-03-16T17:41:50.388Z,0.90
2023-03-16T17:44:20.016Z,0.70
2023-03-16T17:46:48.145Z,0.77
2023-03-16T17:49:18.186Z,0.87
2023-03-16T17:51:46.547Z,1.10
2023-03-16T17:54:14.864Z,1.10
2023-03-16T17:56:44.168Z,1.10
2023-03-16T17:59:17.490Z,1.00
2023-03-16T18:01:47.023Z,1.00
2023-03-16T18:04:17.924Z,1.43
2023-03-16T18:06:47.356Z,1.10
2023-03-16T18:09:15.817Z,1.00
2023-03-16T18:11:47.777Z,1.57
2023-03-16T18:14:25.429Z,1.10
2023-03-16T18:16:54.676Z,1.30
2023-03-16T18:19:25.365Z,1.00
2023-03-16T18:21:53.863Z,0.97
2023-03-16T18:24:25.709Z,0.80
2023-03-16T18:26:55.213Z,1.10
2023-03-16T18:29:24.039Z,1.50
2023-03-16T18:31:56.216Z,1.00
2023-03-16T18:34:25.178Z,1.20
2023-03-16T18:36:54.927Z,1.57
2023-03-16T18:39:23.273Z,1.87
2023-03-16T18:41:51.290Z,1.90
2023-03-16T18:44:23.300Z,1.17
2023-03-16T18:46:53.083Z,1.40
2023-03-16T18:49:23.740Z,1.47
2023-03-16T18:51:54.579Z,1.30
2023-03-16T18:54:24.720Z,1.43
2023-03-16T18:56:53.763Z,1.20
2023-03-16T18:59:23.065Z,1.10
2023-03-16T19:01:51.824Z,1.37
2023-03-16T19:04:24.298Z,1.30
2023-03-16T19:06:54.175Z,1.30
2023-03-16T19:09:25.030Z,1.40
2023-03-16T19:11:52.943Z,1.10
2023-03-16T19:14:24.476Z,1.10
2023-03-16T19:16:53.208Z,1.10
2023-03-16T19:19:22.614Z,1.10
2023-03-16T19:21:52.675Z,1.00
2023-03-16T19:24:26.487Z,1.57
2023-03-16T19:26:54.624Z,1.43
2023-03-16T19:29:30.813Z,1.47
2023-03-16T19:31:59.786Z,1.40
2023-03-16T19:34:28.173Z,0.90
2023-03-16T19:36:56.217Z,1.20
2023-03-16T19:39:24.077Z,1.37
2023-03-16T19:41:57.463Z,1.23
2023-03-16T19:44:28.845Z,1.37
2023-03-16T19:46:59.064Z,1.17
2023-03-16T19:49:29.218Z,1.37
2023-03-16T19:51:57.619Z,1.13
2023-03-16T19:54:27.153Z,1.40
2023-03-16T19:56:56.676Z,1.20
2023-03-16T19:59:30.134Z,0.97
2023-03-16T20:01:58.054Z,1.10
2023-03-16T20:04:27.373Z,1.03
2023-03-16T20:06:55.367Z,0.83
2023-03-16T20:09:23.244Z,1.10
2023-03-16T20:11:51.360Z,1.47
2023-03-16T20:14:21.887Z,1.00
2023-03-16T20:16:51.671Z,1.63
2023-03-16T20:19:22.180Z,1.03
2023-03-16T20:21:50.404Z,1.20
2023-03-16T20:24:20.741Z,1.27
2023-03-16T20:26:51.463Z,1.40
2023-03-16T20:29:25.239Z,1.10
2023-03-16T20:31:54.508Z,1.50
2023-03-16T20:34:24.280Z,1.60
2023-03-16T20:36:52.114Z,1.40
2023-03-16T20:39:19.999Z,1.10
2023-03-16T20:41:48.084Z,1.50
2023-03-16T20:44:19.195Z,1.17
2023-03-16T20:46:47.851Z,1.53
2023-03-16T20:49:34.101Z,1.10
2023-03-16T20:52:02.020Z,1.07
2023-03-16T20:54:29.885Z,1.33
2023-03-16T20:56:57.791Z,1.43
2023-03-16T20:59:28.202Z,1.20
2023-03-16T21:01:56.315Z,1.27
2023-03-16T21:04:27.243Z,1.20
2023-03-16T21:06:57.542Z,1.20
2023-03-16T21:09:25.694Z,1.47
2023-03-16T21:11:53.649Z,1.87
2023-03-16T21:14:24.115Z,1.03
2023-03-16T21:16:54.152Z,1.20
2023-03-16T21:19:23.842Z,1.40
2023-03-16T21:21:52.185Z,1.33
2023-03-16T21:24:21.862Z,1.57
2023-03-16T21:26:49.905Z,1.20
2023-03-16T21:29:21.911Z,1.57
2023-03-16T21:31:49.966Z,1.10
2023-03-16T21:34:24.722Z,1.23
2023-03-16T21:36:52.711Z,1.30
2023-03-16T21:39:24.867Z,1.23
2023-03-16T21:41:53.523Z,2.00
2023-03-16T21:44:21.785Z,1.97
2023-03-16T21:46:49.912Z,2.07
2023-03-16T21:49:17.961Z,1.27
2023-03-16T21:51:45.841Z,1.23
2023-03-16T21:54:14.905Z,1.50
2023-03-16T21:56:44.784Z,1.67
2023-03-16T21:59:13.282Z,1.73
2023-03-16T22:01:58.401Z,1.60
2023-03-16T22:04:29.329Z,1.77
2023-03-16T22:06:57.301Z,1.20
2023-03-16T22:09:29.833Z,1.37
2023-03-16T22:11:59.128Z,1.60
2023-03-16T22:14:27.208Z,1.10
2023-03-16T22:16:55.445Z,1.17
2023-03-16T22:19:23.432Z,1.20
2023-03-16T22:21:51.519Z,1.60
2023-03-16T22:24:21.303Z,1.20
2023-03-16T22:26:50.717Z,1.43
2023-03-16T22:29:25.182Z,1.67
2023-03-16T22:31:55.373Z,1.20
2023-03-16T22:34:29.857Z,1.10
2023-03-16T22:36:58.465Z,1.47
2023-03-16T22:39:26.517Z,1.00
2023-03-16T22:41:54.419Z,1.30
2023-03-16T22:44:24.991Z,1.70
2023-03-16T22:46:52.954Z,1.20
2023-03-16T22:49:23.668Z,1.30
2023-03-16T22:51:53.653Z,1.20
2023-03-16T22:54:25.413Z,1.70
2023-03-16T22:56:53.890Z,1.77
2023-03-16T22:59:26.074Z,1.57
2023-03-16T23:01:54.005Z,1.90
2023-03-16T23:04:24.632Z,1.20
2023-03-16T23:06:54.163Z,1.27
2023-03-16T23:09:22.749Z,2.10
2023-03-16T23:11:54.043Z,1.43
2023-03-16T23:14:26.263Z,1.73
2023-03-16T23:16:54.372Z,1.70
2023-03-16T23:19:26.026Z,2.10
2023-03-16T23:21:56.122Z,2.03
2023-03-16T23:24:24.001Z,1.97
2023-03-16T23:26:52.993Z,1.47
2023-03-16T23:29:21.647Z,1.37
2023-03-16T23:31:51.276Z,1.40
2023-03-16T23:34:21.336Z,1.70
2023-03-16T23:36:49.720Z,1.23
2023-03-16T23:39:18.044Z,1.27
2023-03-16T23:41:49.118Z,1.50
2023-03-16T23:44:18.350Z,1.47
2023-03-16T23:46:46.944Z,1.70
2023-03-16T23:49:19.995Z,1.60
2023-03-16T23:51:48.038Z,1.97
2023-03-16T23:54:19.454Z,1.83
2023-03-16T23:56:47.378Z,1.77
2023-03-16T23:59:15.434Z,1.40
